Time;durP1;ratioP1;P1;durP2;ratioP2;P2;SDS_P1;SDS_P2;PMS_P1;PMS_P2;Temp;Humidity;BMP_temperature;BMP_pressure;BME280_temperature;BME280_humidity;BME280_pressure;Samples;Min_cycle;Max_cycle;Signal;HPM_P1;HPM_P2
2021/11/26 00:02:26;;;;;;;92.15;39.40;;;1.80;99.90;;;;;;5075145;28;20426;-68
2021/11/26 00:04:53;;;;;;;93.50;38.08;;;1.50;99.90;;;;;;5075155;28;20122;-67
2021/11/26 00:07:19;;;;;;;92.25;38.65;;;2.10;99.90;;;;;;5075484;28;20020;-67
2021/11/26 00:09:46;;;;;;;100.90;41.40;;;2.30;99.90;;;;;;5075052;28;20016;-68
2021/11/26 00:12:12;;;;;;;90.50;38.95;;;2.00;99.90;;;;;;5074943;28;20142;-67
2021/11/26 00:14:47;;;;;;;92.15;40.00;;;2.30;99.90;;;;;;5074221;28;20111;-67
2021/11/26 00:17:20;;;;;;;99.53;41.15;;;1.70;99.90;;;;;;5075194;28;20060;-68
2021/11/26 00:19:47;;;;;;;102.55;40.75;;;2.40;99.90;;;;;;5074931;28;20035;-67
2021/11/26 00:22:14;;;;;;;96.95;38.35;;;2.10;99.90;;;;;;5074443;28;20024;-67
2021/11/26 00:24:40;;;;;;;103.18;42.92;;;1.80;99.90;;;;;;5074075;28;20074;-67
2021/11/26 00:27:05;;;;;;;98.13;41.65;;;1.90;99.90;;;;;;5074823;28;20025;-67
2021/11/26 00:29:31;;;;;;;101.88;41.70;;;2.30;99.90;;;;;;5074352;28;20094;-66
2021/11/26 00:31:57;;;;;;;104.20;42.85;;;2.00;99.90;;;;;;5074706;28;20103;-67
2021/11/26 00:34:22;;;;;;;98.40;40.88;;;2.10;99.90;;;;;;5074000;28;20048;-68
2021/11/26 00:36:48;;;;;;;90.30;38.83;;;2.20;99.90;;;;;;5074247;28;20032;-68
2021/11/26 00:39:14;;;;;;;88.70;38.03;;;2.40;99.90;;;;;;5056608;28;20497;-69
2021/11/26 00:41:39;;;;;;;84.15;37.25;;;2.20;99.90;;;;;;5074823;28;20025;-68
2021/11/26 00:44:05;;;;;;;86.38;37.85;;;1.60;99.90;;;;;;5074149;28;20111;-68
2021/11/26 00:46:32;;;;;;;95.13;38.08;;;1.90;99.90;;;;;;5073609;28;20036;-69
2021/11/26 00:48:58;;;;;;;94.80;38.33;;;1.30;99.90;;;;;;5074178;28;20020;-67
2021/11/26 00:51:24;;;;;;;90.05;39.63;;;2.00;99.90;;;;;;5073735;28;20023;-67
2021/11/26 00:53:50;;;;;;;93.22;39.00;;;1.90;99.90;;;;;;5073137;28;20020;-68
2021/11/26 00:56:16;;;;;;;89.47;38.55;;;2.10;99.90;;;;;;5073135;28;20437;-68
2021/11/26 00:58:42;;;;;;;89.57;38.53;;;1.70;99.90;;;;;;5073083;28;20032;-68
2021/11/26 01:01:08;;;;;;;90.22;38.13;;;2.00;99.90;;;;;;5074053;28;20100;-68
2021/11/26 01:03:33;;;;;;;100.80;40.92;;;1.80;99.90;;;;;;5073687;28;20056;-67
2021/11/26 01:05:59;;;;;;;91.70;37.80;;;2.50;99.90;;;;;;5072463;28;20074;-67
2021/11/26 01:08:25;;;;;;;96.35;40.70;;;1.80;99.90;;;;;;5073625;28;20032;-67
2021/11/26 01:10:51;;;;;;;94.05;38.25;;;1.80;99.90;;;;;;5073236;28;20032;-67
2021/11/26 01:13:17;;;;;;;98.80;39.67;;;1.80;99.90;;;;;;5073773;28;20086;-67
2021/11/26 01:15:44;;;;;;;106.85;41.53;;;3.30;99.90;;;;;;5074539;28;20028;-67
2021/11/26 01:18:11;;;;;;;103.78;38.58;;;2.50;99.90;;;;;;5075291;28;20021;-68
2021/11/26 01:20:38;;;;;;;99.47;41.13;;;1.90;99.90;;;;;;5073069;28;20021;-67
2021/11/26 01:23:05;;;;;;;97.80;40.38;;;1.60;99.90;;;;;;5073042;28;20036;-67
2021/11/26 01:25:31;;;;;;;95.82;39.50;;;2.00;99.90;;;;;;5072407;28;20043;-67
2021/11/26 01:27:57;;;;;;;102.28;40.30;;;2.60;99.90;;;;;;5072958;28;20055;-67
2021/11/26 01:30:31;;;;;;;110.03;43.00;;;2.60;99.90;;;;;;5072788;28;20062;-67
2021/11/26 01:33:03;;;;;;;102.93;42.60;;;2.40;99.90;;;;;;5055580;28;20017;-67
2021/11/26 01:35:29;;;;;;;100.38;40.88;;;2.20;99.90;;;;;;5071966;28;20107;-68
2021/11/26 01:37:55;;;;;;;105.90;40.80;;;2.20;99.90;;;;;;5076724;28;20503;-67
2021/11/26 01:40:22;;;;;;;103.25;40.13;;;2.30;99.90;;;;;;5078051;28;20502;-67
2021/11/26 01:42:50;;;;;;;95.00;38.95;;;2.00;99.90;;;;;;5077688;28;20114;-68
2021/11/26 01:45:16;;;;;;;104.15;40.85;;;2.00;99.90;;;;;;5076980;28;20718;-67
2021/11/26 01:47:42;;;;;;;106.63;43.20;;;2.00;99.90;;;;;;5077548;28;20063;-68
2021/11/26 01:50:10;;;;;;;97.15;40.22;;;1.70;99.90;;;;;;5077637;28;20021;-68
2021/11/26 01:52:35;;;;;;;99.47;39.45;;;1.70;99.90;;;;;;5077805;28;20017;-66
2021/11/26 01:55:03;;;;;;;101.28;41.50;;;1.50;99.90;;;;;;5077069;28;20035;-67
2021/11/26 01:57:29;;;;;;;104.57;41.38;;;2.10;99.90;;;;;;5077520;28;20032;-66
2021/11/26 01:59:55;;;;;;;105.35;42.72;;;1.50;99.90;;;;;;5078334;28;20020;-67
2021/11/26 02:02:21;;;;;;;112.55;44.28;;;2.50;99.90;;;;;;5076726;28;20398;-66
2021/11/26 02:04:46;;;;;;;117.88;43.45;;;2.70;99.90;;;;;;5076954;28;20489;-66
2021/11/26 02:07:13;;;;;;;111.68;42.88;;;1.60;99.90;;;;;;5077350;28;20020;-68
2021/11/26 02:09:39;;;;;;;113.03;42.28;;;2.00;99.90;;;;;;5076140;28;20495;-68
2021/11/26 02:12:06;;;;;;;108.57;42.20;;;2.40;99.90;;;;;;5077632;28;20041;-67
2021/11/26 02:14:32;;;;;;;111.90;42.83;;;2.20;99.90;;;;;;5076455;28;20024;-67
2021/11/26 02:16:58;;;;;;;112.22;42.45;;;2.30;99.90;;;;;;5076188;28;20536;-68
2021/11/26 02:19:25;;;;;;;109.45;43.03;;;2.50;99.90;;;;;;5076061;28;20099;-68
2021/11/26 02:21:52;;;;;;;121.93;45.92;;;2.00;99.90;;;;;;5092293;28;20055;-67
2021/11/26 02:24:18;;;;;;;106.38;41.40;;;2.10;99.90;;;;;;5091811;28;20020;-67
2021/11/26 02:26:46;;;;;;;106.25;43.05;;;2.10;99.90;;;;;;5092078;28;20089;-67
2021/11/26 02:29:15;;;;;;;113.78;43.15;;;2.10;99.90;;;;;;5091510;28;20051;-67
2021/11/26 02:31:41;;;;;;;110.97;42.63;;;2.60;99.90;;;;;;5092266;28;20035;-67
2021/11/26 02:34:08;;;;;;;115.13;45.55;;;2.10;99.90;;;;;;5092047;28;20073;-66
2021/11/26 02:36:34;;;;;;;117.82;45.58;;;;;;;;;;5091148;28;20512;-68
2021/11/26 02:39:00;;;;;;;114.35;43.05;;;2.00;99.90;;;;;;5091878;28;20028;-68
2021/11/26 02:41:25;;;;;;;113.30;43.30;;;2.00;99.90;;;;;;5091835;28;20020;-68
2021/11/26 02:43:51;;;;;;;115.30;43.90;;;2.70;99.90;;;;;;5091997;28;20062;-68
2021/11/26 02:46:20;;;;;;;112.40;42.95;;;2.10;99.90;;;;;;5090968;28;20028;-68
2021/11/26 02:48:46;;;;;;;114.38;44.80;;;2.10;99.90;;;;;;5091625;28;20030;-68
2021/11/26 02:51:12;;;;;;;115.05;43.30;;;;;;;;;;5091789;28;20077;-68
2021/11/26 02:53:38;;;;;;;114.18;44.33;;;2.10;99.90;;;;;;5092024;28;20020;-67
2021/11/26 02:56:04;;;;;;;116.65;43.72;;;2.00;99.90;;;;;;5091306;28;20103;-68
2021/11/26 02:58:31;;;;;;;114.82;45.13;;;2.00;99.90;;;;;;5091704;28;20035;-66
2021/11/26 03:00:59;;;;;;;109.72;43.67;;;1.70;99.90;;;;;;5091748;28;20082;-68
2021/11/26 03:03:25;;;;;;;122.13;46.70;;;2.30;99.90;;;;;;5091971;28;20431;-67
2021/11/26 03:05:59;;;;;;;115.68;43.85;;;1.90;99.90;;;;;;5089241;28;20081;-68
2021/11/26 03:08:26;;;;;;;110.05;42.92;;;2.40;99.90;;;;;;5091796;28;20067;-68
2021/11/26 03:10:51;;;;;;;108.88;43.10;;;2.20;99.90;;;;;;5091231;28;20043;-67
2021/11/26 03:13:17;;;;;;;113.90;43.70;;;2.30;99.90;;;;;;5091875;28;20032;-68
2021/11/26 03:15:44;;;;;;;121.78;44.33;;;2.10;99.90;;;;;;5091935;28;20397;-68
2021/11/26 03:18:14;;;;;;;114.10;43.65;;;2.10;99.90;;;;;;5103861;28;20016;-67
2021/11/26 03:20:40;;;;;;;103.53;41.60;;;1.70;99.90;;;;;;5102852;28;20110;-67
2021/11/26 03:23:06;;;;;;;107.97;42.47;;;2.00;99.90;;;;;;5095723;28;20028;-68
2021/11/26 03:25:32;;;;;;;112.38;43.08;;;2.30;99.90;;;;;;5094856;28;20039;-69
2021/11/26 03:27:57;;;;;;;114.47;43.47;;;2.40;99.90;;;;;;5095603;28;20020;-68
2021/11/26 03:30:24;;;;;;;114.60;43.85;;;2.90;99.90;;;;;;5095122;28;20109;-68
2021/11/26 03:32:49;;;;;;;108.45;43.28;;;2.30;99.90;;;;;;5095622;28;20059;-68
2021/11/26 03:35:16;;;;;;;109.20;43.00;;;1.80;99.90;;;;;;5094859;28;20066;-68
2021/11/26 03:37:42;;;;;;;106.28;42.90;;;1.60;99.90;;;;;;5095747;28;20047;-68
2021/11/26 03:40:12;;;;;;;110.60;43.55;;;2.40;99.90;;;;;;5095416;28;20089;-67
2021/11/26 03:42:39;;;;;;;107.38;42.03;;;2.10;99.90;;;;;;5095606;28;20111;-68
2021/11/26 03:45:07;;;;;;;110.18;42.42;;;2.10;99.90;;;;;;5094681;28;20060;-68
2021/11/26 03:47:33;;;;;;;105.07;42.28;;;1.70;99.90;;;;;;5095275;28;20020;-68
2021/11/26 03:49:58;;;;;;;106.60;41.40;;;2.50;99.90;;;;;;5095593;28;20042;-68
2021/11/26 03:52:24;;;;;;;104.28;42.70;;;2.30;99.90;;;;;;5096002;28;20530;-68
2021/11/26 03:54:50;;;;;;;105.53;42.45;;;1.90;99.90;;;;;;5095295;28;20054;-67
2021/11/26 03:57:16;;;;;;;99.93;41.75;;;2.20;99.90;;;;;;5095402;28;20026;-68
2021/11/26 03:59:41;;;;;;;100.60;41.97;;;2.20;99.90;;;;;;5094555;28;20482;-68
2021/11/26 04:02:08;;;;;;;100.03;41.17;;;2.20;99.90;;;;;;5094798;28;20020;-68
2021/11/26 04:04:34;;;;;;;102.07;40.10;;;2.20;99.90;;;;;;5094333;28;20042;-68
2021/11/26 04:07:00;;;;;;;104.20;42.20;;;2.40;99.90;;;;;;5094907;28;20506;-67
2021/11/26 04:09:26;;;;;;;108.28;42.50;;;2.70;99.90;;;;;;5095095;28;20471;-67
2021/11/26 04:11:51;;;;;;;108.30;41.67;;;2.30;99.90;;;;;;5094960;28;20028;-68
2021/11/26 04:14:17;;;;;;;93.85;39.05;;;2.10;99.90;;;;;;5094147;28;20036;-68
2021/11/26 04:16:45;;;;;;;98.28;40.60;;;2.00;99.90;;;;;;5094702;28;20032;-67
2021/11/26 04:19:11;;;;;;;104.45;40.20;;;2.00;99.90;;;;;;5094863;28;20036;-67
2021/11/26 04:21:37;;;;;;;103.22;41.63;;;2.00;99.90;;;;;;5094685;28;20051;-67
2021/11/26 04:24:03;;;;;;;101.53;41.45;;;1.80;99.90;;;;;;5094666;28;20035;-68
2021/11/26 04:26:30;;;;;;;104.45;40.58;;;2.00;99.90;;;;;;5093093;28;20166;-67
2021/11/26 04:28:56;;;;;;;117.13;43.00;;;1.70;99.90;;;;;;5094966;28;20028;-68
2021/11/26 04:31:22;;;;;;;111.50;42.00;;;1.90;99.90;;;;;;5097011;28;20035;-68
2021/11/26 04:33:48;;;;;;;106.35;42.50;;;1.50;99.90;;;;;;5098933;28;20028;-67
2021/11/26 04:36:14;;;;;;;102.72;42.65;;;1.60;99.90;;;;;;5096966;28;20400;-68
2021/11/26 04:38:40;;;;;;;103.38;42.67;;;2.20;99.90;;;;;;5094761;28;20073;-68
2021/11/26 04:41:06;;;;;;;97.68;41.42;;;1.40;99.90;;;;;;5094633;28;20032;-66
2021/11/26 04:43:32;;;;;;;110.50;44.30;;;2.20;99.90;;;;;;5093907;28;20020;-68
2021/11/26 04:45:58;;;;;;;101.95;41.50;;;2.50;99.90;;;;;;5093165;28;20085;-67
2021/11/26 04:48:24;;;;;;;106.25;43.20;;;2.10;99.90;;;;;;5094035;28;20028;-68
2021/11/26 04:50:51;;;;;;;99.40;40.97;;;2.00;99.90;;;;;;5094334;28;20025;-67
2021/11/26 04:53:18;;;;;;;100.03;40.55;;;1.50;99.90;;;;;;5094110;28;20028;-68
2021/11/26 04:55:44;;;;;;;107.18;42.25;;;1.80;99.90;;;;;;5093710;28;20032;-67
2021/11/26 04:58:10;;;;;;;109.63;42.80;;;1.90;99.90;;;;;;5111072;28;20020;-67
2021/11/26 05:00:36;;;;;;;106.22;43.17;;;2.70;99.90;;;;;;5095851;28;20099;-68
2021/11/26 05:03:02;;;;;;;101.88;41.00;;;2.30;99.90;;;;;;5094062;28;20111;-68
2021/11/26 05:05:28;;;;;;;110.90;42.80;;;;;;;;;;5093065;28;20028;-68
2021/11/26 05:07:53;;;;;;;101.78;42.33;;;2.20;99.90;;;;;;5093296;28;20111;-67
2021/11/26 05:10:20;;;;;;;100.22;40.08;;;1.80;99.90;;;;;;5093593;28;20091;-68
2021/11/26 05:13:08;;;;;;;99.75;39.50;;;2.00;99.90;;;;;;5093451;28;20042;-68
2021/11/26 05:15:33;;;;;;;114.75;43.65;;;1.80;99.90;;;;;;5093335;28;20047;-68
2021/11/26 05:18:04;;;;;;;111.38;42.88;;;1.20;99.90;;;;;;5093443;28;20043;-68
2021/11/26 05:20:32;;;;;;;113.80;44.60;;;1.40;99.90;;;;;;5093526;28;20056;-67
2021/11/26 05:22:57;;;;;;;112.68;43.08;;;1.60;99.90;;;;;;5060187;22;20065;-70
2021/11/26 05:25:23;;;;;;;105.47;41.53;;;1.90;99.90;;;;;;5037015;28;20037;-70
2021/11/26 05:27:50;;;;;;;105.43;43.25;;;1.80;99.90;;;;;;5047233;28;20184;-71
2021/11/26 05:30:16;;;;;;;103.10;42.40;;;1.80;99.90;;;;;;5044769;28;20533;-70
2021/11/26 05:32:42;;;;;;;107.80;42.40;;;1.70;99.90;;;;;;5021829;28;20050;-71
2021/11/26 05:35:10;;;;;;;106.72;42.78;;;1.30;99.90;;;;;;5012383;28;20030;-71
2021/11/26 05:37:36;;;;;;;107.82;42.58;;;1.60;99.90;;;;;;5013113;28;20526;-71
2021/11/26 05:40:04;;;;;;;112.10;43.00;;;1.90;99.90;;;;;;5013130;28;20026;-71
2021/11/26 05:42:30;;;;;;;109.30;44.58;;;1.50;99.90;;;;;;4995733;28;20037;-70
2021/11/26 05:44:55;;;;;;;112.22;44.45;;;1.80;99.90;;;;;;5015915;28;20053;-71
2021/11/26 05:47:21;;;;;;;109.18;43.08;;;1.40;99.90;;;;;;5033916;28;20053;-71
2021/11/26 05:49:47;;;;;;;113.65;45.28;;;1.80;99.90;;;;;;5003545;28;20095;-71
2021/11/26 05:52:13;;;;;;;109.22;41.70;;;1.80;99.90;;;;;;5016900;28;20022;-71
2021/11/26 05:54:39;;;;;;;107.28;43.08;;;2.10;99.90;;;;;;5031586;28;20033;-76
2021/11/26 05:57:05;;;;;;;113.03;42.72;;;;;;;;;;5030813;28;20025;-75
2021/11/26 05:59:30;;;;;;;120.07;45.33;;;1.90;99.90;;;;;;5029932;28;20083;-76
2021/11/26 06:01:58;;;;;;;109.75;44.67;;;2.50;99.90;;;;;;5030452;28;20120;-76
2021/11/26 06:04:25;;;;;;;113.38;42.70;;;2.00;99.90;;;;;;5030028;28;20542;-76
2021/11/26 06:06:51;;;;;;;102.43;42.97;;;2.00;99.90;;;;;;5030554;28;20060;-68
2021/11/26 06:09:16;;;;;;;103.22;42.25;;;2.60;99.90;;;;;;5030245;28;20068;-69
2021/11/26 06:11:42;;;;;;;104.70;43.03;;;1.70;99.90;;;;;;5018211;28;20040;-69
2021/11/26 06:14:07;;;;;;;104.03;43.13;;;2.30;99.90;;;;;;5010479;28;20026;-70
2021/11/26 06:16:33;;;;;;;102.35;43.42;;;1.60;99.90;;;;;;5009978;28;20032;-71
2021/11/26 06:18:59;;;;;;;113.07;44.40;;;1.70;99.90;;;;;;5026102;28;20120;-71
2021/11/26 06:21:25;;;;;;;114.30;45.10;;;1.60;99.90;;;;;;5030642;28;20033;-71
2021/11/26 06:23:50;;;;;;;103.38;42.85;;;1.40;99.90;;;;;;5012597;28;20469;-70
2021/11/26 06:26:16;;;;;;;108.13;42.33;;;1.60;99.90;;;;;;5030057;28;20037;-71
2021/11/26 06:28:42;;;;;;;113.18;45.17;;;;;;;;;;5030125;28;20032;-72
2021/11/26 06:31:08;;;;;;;103.15;42.25;;;1.70;99.90;;;;;;5030371;28;20033;-72
2021/11/26 06:33:33;;;;;;;108.18;43.10;;;1.70;99.90;;;;;;5030641;28;20049;-67
2021/11/26 06:35:59;;;;;;;106.82;41.92;;;1.70;99.90;;;;;;5029376;28;20037;-69
2021/11/26 06:38:25;;;;;;;109.25;43.45;;;1.80;99.90;;;;;;5027727;28;20025;-67
2021/11/26 06:40:51;;;;;;;107.80;42.88;;;1.90;99.90;;;;;;5009012;28;20483;-67
2021/11/26 06:43:16;;;;;;;108.90;43.50;;;2.60;99.90;;;;;;5010185;28;20108;-67
2021/11/26 06:45:43;;;;;;;110.65;42.75;;;1.80;99.90;;;;;;5026939;28;20025;-67
2021/11/26 06:48:09;;;;;;;114.35;46.35;;;2.20;99.90;;;;;;5012533;28;20018;-67
2021/11/26 06:50:36;;;;;;;106.32;41.47;;;1.90;99.90;;;;;;5030279;28;20025;-67
2021/11/26 06:53:03;;;;;;;119.28;44.58;;;2.00;99.90;;;;;;5029940;28;20066;-68
2021/11/26 06:55:28;;;;;;;111.70;46.25;;;2.30;99.90;;;;;;5029457;28;20555;-67
2021/11/26 06:57:54;;;;;;;109.15;44.83;;;2.40;99.90;;;;;;5030069;28;20112;-68
2021/11/26 07:00:20;;;;;;;112.00;44.53;;;2.10;99.90;;;;;;5012556;28;20037;-68
2021/11/26 07:02:46;;;;;;;111.38;42.88;;;1.90;99.90;;;;;;5029825;28;20080;-67
2021/11/26 07:05:12;;;;;;;109.20;44.28;;;1.90;99.90;;;;;;5022569;28;20037;-68
2021/11/26 07:07:38;;;;;;;113.53;43.75;;;2.40;99.90;;;;;;5029782;28;20033;-68
2021/11/26 07:10:07;;;;;;;104.65;43.10;;;1.60;99.90;;;;;;5031644;28;20426;-68
2021/11/26 07:12:34;;;;;;;100.38;40.60;;;1.90;99.90;;;;;;5014496;28;20026;-68
2021/11/26 07:15:00;;;;;;;112.75;43.75;;;1.70;99.90;;;;;;5022475;28;20080;-68
2021/11/26 07:17:26;;;;;;;111.60;43.67;;;1.60;99.90;;;;;;5030363;28;20029;-67
2021/11/26 07:19:52;;;;;;;104.85;42.30;;;1.70;99.90;;;;;;5031549;28;20037;-68
2021/11/26 07:22:18;;;;;;;112.18;44.10;;;1.70;99.90;;;;;;5030944;28;20022;-68
2021/11/26 07:24:45;;;;;;;104.50;41.88;;;1.40;99.90;;;;;;5014275;28;20395;-68
2021/11/26 07:27:11;;;;;;;104.55;43.28;;;1.60;99.90;;;;;;5011379;28;20038;-67
2021/11/26 07:29:37;;;;;;;119.90;46.58;;;1.70;99.90;;;;;;5011658;28;20026;-68
2021/11/26 07:32:03;;;;;;;110.32;44.65;;;1.60;99.90;;;;;;5011631;28;20018;-67
2021/11/26 07:34:29;;;;;;;116.85;44.95;;;1.40;99.90;;;;;;4993384;28;20022;-68
2021/11/26 07:36:55;;;;;;;107.78;40.80;;;1.80;99.90;;;;;;5010853;28;20390;-68
2021/11/26 07:39:24;;;;;;;100.45;41.45;;;1.70;99.90;;;;;;5026327;28;20495;-68
2021/11/26 07:41:50;;;;;;;100.60;42.08;;;1.50;99.90;;;;;;5031026;28;20040;-67
2021/11/26 07:44:16;;;;;;;110.78;44.00;;;1.60;99.90;;;;;;5012753;28;20037;-68
2021/11/26 07:46:41;;;;;;;105.93;42.30;;;1.40;99.90;;;;;;5030229;28;20563;-68
2021/11/26 07:49:07;;;;;;;102.90;41.08;;;1.20;99.90;;;;;;5030742;28;20056;-67
2021/11/26 07:51:33;;;;;;;108.70;42.22;;;1.40;99.90;;;;;;5030317;28;20100;-68
2021/11/26 07:53:59;;;;;;;107.00;41.42;;;1.40;99.90;;;;;;5030929;28;20507;-68
2021/11/26 07:56:25;;;;;;;107.43;42.80;;;1.80;99.90;;;;;;5030427;28;20060;-71
2021/11/26 07:58:51;;;;;;;115.15;43.88;;;1.80;99.90;;;;;;5031472;28;20022;-71
2021/11/26 08:01:16;;;;;;;117.72;44.60;;;2.20;99.90;;;;;;5015185;28;20028;-71
2021/11/26 08:03:43;;;;;;;118.55;46.47;;;1.30;99.90;;;;;;5014709;28;20076;-71
2021/11/26 08:06:09;;;;;;;112.90;44.08;;;1.70;99.90;;;;;;5014533;28;20038;-70
2021/11/26 08:08:34;;;;;;;116.97;46.60;;;1.60;99.90;;;;;;5015157;28;20102;-70
2021/11/26 08:11:01;;;;;;;115.22;46.13;;;1.60;99.90;;;;;;5015056;28;20381;-71
2021/11/26 08:13:27;;;;;;;122.05;47.20;;;1.60;99.90;;;;;;5015264;28;20455;-71
2021/11/26 08:15:52;;;;;;;123.78;46.22;;;1.30;99.90;;;;;;5015662;28;20121;-71
2021/11/26 08:18:18;;;;;;;112.40;42.90;;;1.70;99.90;;;;;;5034432;28;20401;-71
2021/11/26 08:20:44;;;;;;;109.55;45.85;;;1.70;99.90;;;;;;5034618;28;20037;-71
2021/11/26 08:23:10;;;;;;;107.30;42.55;;;1.30;99.90;;;;;;5034558;28;20092;-71
2021/11/26 08:25:37;;;;;;;106.22;42.17;;;1.50;99.90;;;;;;5034216;28;20619;-71
2021/11/26 08:28:04;;;;;;;159.88;56.15;;;1.10;99.90;;;;;;5034645;28;20021;-71
2021/11/26 08:30:30;;;;;;;131.18;47.50;;;1.70;99.90;;;;;;5034514;28;20522;-71
2021/11/26 08:32:56;;;;;;;127.85;48.22;;;1.80;99.90;;;;;;5034232;28;20112;-71
2021/11/26 08:35:24;;;;;;;115.22;44.60;;;1.60;99.90;;;;;;5034199;28;20033;-71
2021/11/26 08:37:51;;;;;;;120.25;44.60;;;1.80;99.90;;;;;;5034310;28;20060;-71
2021/11/26 08:40:17;;;;;;;117.45;44.33;;;1.70;99.90;;;;;;5036681;28;20113;-71
2021/11/26 08:42:43;;;;;;;116.82;45.05;;;1.90;99.90;;;;;;5040000;28;20040;-70
2021/11/26 08:45:11;;;;;;;115.38;46.35;;;1.90;99.90;;;;;;5038944;28;20052;-71
2021/11/26 08:47:38;;;;;;;115.75;44.75;;;1.70;99.90;;;;;;5043739;28;20025;-71
2021/11/26 08:50:05;;;;;;;112.20;43.65;;;2.80;99.90;;;;;;5035891;28;20065;-70
2021/11/26 08:52:32;;;;;;;103.50;41.60;;;2.00;99.90;;;;;;5046240;28;20025;-71
2021/11/26 08:54:58;;;;;;;106.43;41.53;;;1.90;99.90;;;;;;5044784;28;20551;-71
2021/11/26 08:57:28;;;;;;;108.22;41.47;;;2.10;99.90;;;;;;5034521;28;20101;-71
2021/11/26 08:59:54;;;;;;;109.03;41.97;;;2.10;99.90;;;;;;5034022;28;20075;-71
2021/11/26 09:02:20;;;;;;;111.32;41.67;;;1.90;99.90;;;;;;5016656;28;20475;-71
2021/11/26 09:04:45;;;;;;;103.05;41.80;;;2.00;99.90;;;;;;5033029;28;20075;-71
2021/11/26 09:07:11;;;;;;;98.90;38.75;;;1.90;99.90;;;;;;5034023;28;20049;-70
2021/11/26 09:09:37;;;;;;;101.65;40.17;;;1.90;99.90;;;;;;5033741;28;20080;-72
2021/11/26 09:12:03;;;;;;;99.28;39.78;;;2.50;99.90;;;;;;5033712;28;20454;-71
2021/11/26 09:14:29;;;;;;;103.15;40.03;;;2.20;99.90;;;;;;5032813;28;20434;-70
2021/11/26 09:16:55;;;;;;;88.35;36.35;;;2.60;99.90;;;;;;5033782;28;20029;-73
2021/11/26 09:19:21;;;;;;;88.60;36.55;;;2.20;99.90;;;;;;5033795;28;20026;-71
2021/11/26 09:21:46;;;;;;;98.18;39.13;;;2.00;99.90;;;;;;5033315;28;20037;-71
2021/11/26 09:24:12;;;;;;;89.80;37.03;;;2.60;99.90;;;;;;5033292;28;20033;-71
2021/11/26 09:26:39;;;;;;;90.68;37.67;;;2.10;99.90;;;;;;5032852;28;20045;-70
2021/11/26 09:29:05;;;;;;;85.25;35.92;;;2.50;99.90;;;;;;5015956;28;20018;-69
2021/11/26 09:31:30;;;;;;;86.97;39.55;;;2.20;99.90;;;;;;5032304;28;20100;-70
2021/11/26 09:33:57;;;;;;;94.03;38.78;;;2.70;99.90;;;;;;5015861;28;20115;-70
2021/11/26 09:36:24;;;;;;;89.55;38.25;;;2.30;99.90;;;;;;5032733;28;20549;-70
2021/11/26 09:38:50;;;;;;;84.13;35.80;;;2.80;99.90;;;;;;5033044;28;20156;-70
2021/11/26 09:41:16;;;;;;;87.40;35.92;;;2.40;99.90;;;;;;5033321;28;20464;-69
2021/11/26 09:43:45;;;;;;;96.18;38.40;;;2.60;99.90;;;;;;5033302;28;20057;-71
2021/11/26 09:46:11;;;;;;;90.80;38.20;;;3.30;99.90;;;;;;5032227;28;20112;-72
2021/11/26 09:48:37;;;;;;;87.50;35.88;;;3.30;99.90;;;;;;5033388;28;20059;-71
2021/11/26 09:51:06;;;;;;;89.60;40.13;;;2.30;99.90;;;;;;5015230;28;20497;-71
2021/11/26 09:53:32;;;;;;;92.50;37.05;;;3.30;99.90;;;;;;5032882;28;20021;-71
2021/11/26 09:56:06;;;;;;;79.95;34.65;;;3.00;99.90;;;;;;5032686;28;20108;-72
2021/11/26 09:58:34;;;;;;;91.32;36.92;;;3.00;99.90;;;;;;5032493;28;20052;-71
2021/11/26 10:01:02;;;;;;;84.72;36.00;;;2.90;99.90;;;;;;5033841;28;20382;-71
2021/11/26 10:03:52;;;;;;;86.18;35.78;;;3.00;99.90;;;;;;5033138;28;20025;-71
2021/11/26 10:06:44;;;;;;;79.57;34.90;;;2.70;99.90;;;;;;5032249;28;20561;-72
2021/11/26 10:09:19;;;;;;;83.00;35.17;;;3.00;99.90;;;;;;5033569;28;20029;-72
2021/11/26 10:11:49;;;;;;;84.75;34.67;;;3.50;99.90;;;;;;5032558;28;20049;-71
2021/11/26 10:14:30;;;;;;;83.55;36.97;;;2.90;99.90;;;;;;5032426;28;20018;-71
2021/11/26 10:17:18;;;;;;;81.25;35.97;;;3.10;99.90;;;;;;5032605;28;20428;-71
2021/11/26 10:19:46;;;;;;;80.75;34.80;;;3.30;99.90;;;;;;5032476;28;20056;-72
2021/11/26 10:22:24;;;;;;;86.22;37.42;;;3.20;99.90;;;;;;5031697;28;20382;-71
2021/11/26 10:25:06;;;;;;;88.10;36.55;;;2.90;99.90;;;;;;5032374;28;20025;-71
2021/11/26 10:27:57;;;;;;;94.20;39.20;;;3.00;99.90;;;;;;5033281;28;20390;-71
2021/11/26 10:30:29;;;;;;;89.30;37.45;;;3.10;99.90;;;;;;5012623;28;20396;-71
2021/11/26 10:32:57;;;;;;;89.85;38.15;;;2.70;99.90;;;;;;4995314;28;20659;-71
2021/11/26 10:35:41;;;;;;;82.47;35.92;;;2.80;99.90;;;;;;5029586;28;20475;-71
2021/11/26 10:38:12;;;;;;;87.13;37.10;;;2.70;99.90;;;;;;5031922;28;20418;-71
2021/11/26 10:40:41;;;;;;;84.78;36.80;;;3.00;99.90;;;;;;5032293;28;20026;-73
2021/11/26 10:43:17;;;;;;;94.53;38.80;;;3.40;99.90;;;;;;5031121;28;20494;-73
2021/11/26 10:59:00;;;;;;;79.85;34.33;;;3.40;99.90;;;;;;5021679;28;20033;-70
2021/11/26 11:01:26;;;;;;;81.20;33.25;;;3.40;99.90;;;;;;5031831;28;20398;-70
2021/11/26 11:03:52;;;;;;;71.38;31.02;;;3.40;99.90;;;;;;5031838;28;20026;-70
2021/11/26 11:06:24;;;;;;;71.63;31.55;;;3.80;99.90;;;;;;5013469;28;20026;-70
2021/11/26 11:09:05;;;;;;;76.95;33.58;;;3.20;99.90;;;;;;5031722;28;20024;-70
2021/11/26 11:11:31;;;;;;;77.53;33.38;;;3.20;99.90;;;;;;5031292;28;20029;-70
2021/11/26 11:14:01;;;;;;;76.03;33.13;;;3.00;99.90;;;;;;5013736;28;20140;-71
2021/11/26 11:16:27;;;;;;;75.47;33.83;;;3.50;99.90;;;;;;5030691;28;20030;-69
2021/11/26 11:18:53;;;;;;;74.32;32.38;;;3.30;99.90;;;;;;5031471;28;20040;-69
2021/11/26 11:21:20;;;;;;;74.57;32.67;;;3.40;99.90;;;;;;5031364;28;20029;-70
2021/11/26 11:23:49;;;;;;;68.82;33.13;;;3.40;99.90;;;;;;5032262;28;20487;-70
2021/11/26 11:26:16;;;;;;;71.95;32.92;;;3.30;99.90;;;;;;5031053;28;20029;-70
2021/11/26 11:28:41;;;;;;;79.68;33.45;;;2.80;99.90;;;;;;5031596;28;20091;-69
2021/11/26 11:31:07;;;;;;;74.68;32.03;;;3.10;99.90;;;;;;5031095;28;20503;-69
2021/11/26 11:33:34;;;;;;;72.18;31.42;;;3.60;99.90;;;;;;5031678;28;20025;-69
2021/11/26 11:36:02;;;;;;;74.53;32.53;;;3.70;99.90;;;;;;5031231;28;20022;-70
2021/11/26 11:38:28;;;;;;;78.55;32.17;;;3.40;99.90;;;;;;5035427;28;20045;-70
2021/11/26 11:41:08;;;;;;;86.35;34.65;;;3.40;99.90;;;;;;5035436;28;20503;-71
2021/11/26 11:43:43;;;;;;;76.07;32.05;;;3.70;99.90;;;;;;5035393;28;20132;-70
2021/11/26 11:46:12;;;;;;;72.32;31.60;;;3.30;99.90;;;;;;5034490;28;20060;-69
2021/11/26 11:48:45;;;;;;;79.18;32.58;;;3.30;99.90;;;;;;5035484;28;20110;-70
2021/11/26 11:51:33;;;;;;;77.13;33.00;;;3.40;99.90;;;;;;5035171;28;20079;-69
2021/11/26 11:54:06;;;;;;;77.25;33.60;;;3.00;99.90;;;;;;5035203;28;20033;-70
2021/11/26 11:56:53;;;;;;;76.40;32.88;;;3.50;99.90;;;;;;5034638;28;20025;-69
2021/11/26 11:59:31;;;;;;;72.85;31.98;;;3.90;99.90;;;;;;5034620;28;20026;-70
2021/11/26 12:01:58;;;;;;;82.50;34.22;;;3.40;99.90;;;;;;5038352;28;20240;-69
2021/11/26 12:04:25;;;;;;;79.22;32.92;;;3.40;99.90;;;;;;5045923;28;20021;-70
2021/11/26 12:06:52;;;;;;;69.22;31.58;;;3.70;99.90;;;;;;5036793;28;20026;-69
2021/11/26 12:09:31;;;;;;;69.30;31.88;;;3.70;99.90;;;;;;5035097;28;20105;-70
2021/11/26 12:12:16;;;;;;;80.30;32.65;;;6.50;99.90;;;;;;5034968;28;20029;-69
2021/11/26 12:14:45;;;;;;;72.28;30.88;;;3.70;99.90;;;;;;5033865;28;20026;-69
2021/11/26 12:17:15;;;;;;;70.68;29.77;;;3.70;99.90;;;;;;5034744;28;20112;-70
2021/11/26 12:19:42;;;;;;;72.18;29.90;;;3.70;99.90;;;;;;5034348;28;20036;-70
2021/11/26 12:22:22;;;;;;;67.55;28.90;;;3.60;99.90;;;;;;5034514;28;20083;-70
2021/11/26 12:24:52;;;;;;;69.13;29.38;;;3.70;99.90;;;;;;5033794;28;20109;-70
2021/11/26 12:27:24;;;;;;;69.22;30.92;;;3.70;99.90;;;;;;5034124;28;20029;-70
2021/11/26 12:29:51;;;;;;;66.30;29.27;;;3.60;99.90;;;;;;5034081;28;20033;-69
2021/11/26 12:32:23;;;;;;;69.47;30.73;;;3.70;99.90;;;;;;5034582;28;20021;-68
2021/11/26 12:34:53;;;;;;;70.05;30.80;;;3.80;99.90;;;;;;5033777;28;20018;-69
2021/11/26 12:37:24;;;;;;;62.97;28.08;;;3.70;99.90;;;;;;5034313;28;20061;-69
2021/11/26 12:39:51;;;;;;;63.38;28.35;;;3.70;99.90;;;;;;5032929;28;20030;-69
2021/11/26 12:42:18;;;;;;;63.92;28.33;;;4.00;99.90;;;;;;5033763;28;20021;-69
2021/11/26 12:45:06;;;;;;;60.88;28.20;;;3.80;99.90;;;;;;5032291;28;20080;-70
2021/11/26 12:47:36;;;;;;;60.83;26.15;;;4.10;99.90;;;;;;5033743;28;20116;-70
2021/11/26 12:53:17;;;;;;;54.95;24.75;;;3.50;99.90;;;;;;5034153;28;20049;-69